Terminal Aerodrome Forecast
Issued by NWS

Home | Current Version | Previous Version | Text Only | Print | Product List | Glossary On
Versions: 1 2 3 4 5 6 7 8 9 10 11 12 13 14 15
000
FTUS45 KRIW 210500
TAFCOD
TAF
KCOD 210526Z 2106/2206 VRB05KT P6SM SCT250
     FM211600 15008KT P6SM FEW100 BKN250
     FM220500 18010KT P6SM BKN110
      AMD LTD TO CLD VIS AND WIND=

USA.gov is the U.S. government's official web portal to all federal, state and local government web resources and services.